sensor_id;sensor_type;location;lat;lon;timestamp;P1;durP1;ratioP1;P2;durP2;ratioP2
71838;SDS011;59687;37.520;15.068;2022-09-25T00:01:07;5.00;;;2.80;;
71838;SDS011;59687;37.520;15.068;2022-09-25T00:03:36;5.03;;;2.80;;
71838;SDS011;59687;37.520;15.068;2022-09-25T00:06:07;6.20;;;2.78;;
71838;SDS011;59687;37.520;15.068;2022-09-25T00:08:39;5.15;;;3.15;;
71838;SDS011;59687;37.520;15.068;2022-09-25T00:11:07;5.22;;;3.15;;
71838;SDS011;59687;37.520;15.068;2022-09-25T00:13:36;5.47;;;2.90;;
71838;SDS011;59687;37.520;15.068;2022-09-25T00:16:06;4.82;;;2.60;;
71838;SDS011;59687;37.520;15.068;2022-09-25T00:18:36;5.15;;;3.10;;
71838;SDS011;59687;37.520;15.068;2022-09-25T00:21:22;5.45;;;2.90;;
71838;SDS011;59687;37.520;15.068;2022-09-25T00:23:49;7.68;;;4.63;;
71838;SDS011;59687;37.520;15.068;2022-09-25T00:26:16;7.23;;;3.50;;
71838;SDS011;59687;37.520;15.068;2022-09-25T00:28:43;4.88;;;2.80;;
71838;SDS011;59687;37.520;15.068;2022-09-25T00:31:10;6.05;;;3.33;;
71838;SDS011;59687;37.520;15.068;2022-09-25T00:33:43;5.18;;;3.10;;
71838;SDS011;59687;37.520;15.068;2022-09-25T00:36:11;7.15;;;2.90;;
71838;SDS011;59687;37.520;15.068;2022-09-25T00:38:38;5.33;;;3.20;;
71838;SDS011;59687;37.520;15.068;2022-09-25T00:41:05;5.00;;;3.20;;
71838;SDS011;59687;37.520;15.068;2022-09-25T00:43:43;4.95;;;2.70;;
71838;SDS011;59687;37.520;15.068;2022-09-25T00:46:16;5.43;;;2.88;;
71838;SDS011;59687;37.520;15.068;2022-09-25T00:48:52;5.20;;;2.72;;
71838;SDS011;59687;37.520;15.068;2022-09-25T00:51:23;5.53;;;3.43;;
71838;SDS011;59687;37.520;15.068;2022-09-25T00:53:56;6.35;;;3.20;;
71838;SDS011;59687;37.520;15.068;2022-09-25T00:56:27;6.72;;;3.33;;
71838;SDS011;59687;37.520;15.068;2022-09-25T00:58:57;5.60;;;3.38;;
71838;SDS011;59687;37.520;15.068;2022-09-25T01:01:24;6.03;;;3.60;;
71838;SDS011;59687;37.520;15.068;2022-09-25T01:03:54;7.97;;;3.70;;
71838;SDS011;59687;37.520;15.068;2022-09-25T01:06:21;6.95;;;3.75;;
71838;SDS011;59687;37.520;15.068;2022-09-25T01:08:51;5.00;;;3.20;;
71838;SDS011;59687;37.520;15.068;2022-09-25T01:11:18;6.30;;;3.55;;
71838;SDS011;59687;37.520;15.068;2022-09-25T01:13:45;6.50;;;3.53;;
71838;SDS011;59687;37.520;15.068;2022-09-25T01:16:14;6.70;;;3.30;;
71838;SDS011;59687;37.520;15.068;2022-09-25T01:19:02;5.97;;;3.40;;
71838;SDS011;59687;37.520;15.068;2022-09-25T01:21:35;4.95;;;3.10;;
71838;SDS011;59687;37.520;15.068;2022-09-25T01:26:58;7.20;;;4.28;;
71838;SDS011;59687;37.520;15.068;2022-09-25T01:32:39;7.32;;;3.53;;
71838;SDS011;59687;37.520;15.068;2022-09-25T01:40:56;5.93;;;3.05;;
71838;SDS011;59687;37.520;15.068;2022-09-25T01:46:49;5.32;;;3.28;;
71838;SDS011;59687;37.520;15.068;2022-09-25T01:48:55;5.13;;;3.20;;
71838;SDS011;59687;37.520;15.068;2022-09-25T01:51:44;7.97;;;3.00;;
71838;SDS011;59687;37.520;15.068;2022-09-25T01:54:23;7.00;;;3.25;;
71838;SDS011;59687;37.520;15.068;2022-09-25T01:59:41;8.70;;;3.30;;
71838;SDS011;59687;37.520;15.068;2022-09-25T02:02:46;5.97;;;3.00;;
71838;SDS011;59687;37.520;15.068;2022-09-25T02:05:31;5.22;;;2.90;;
71838;SDS011;59687;37.520;15.068;2022-09-25T02:08:07;8.50;;;3.53;;
71838;SDS011;59687;37.520;15.068;2022-09-25T02:10:52;6.50;;;3.47;;
71838;SDS011;59687;37.520;15.068;2022-09-25T02:13:24;6.45;;;2.97;;
71838;SDS011;59687;37.520;15.068;2022-09-25T02:15:55;5.47;;;3.40;;
71838;SDS011;59687;37.520;15.068;2022-09-25T02:18:27;5.72;;;3.00;;
71838;SDS011;59687;37.520;15.068;2022-09-25T02:23:57;7.23;;;3.40;;
71838;SDS011;59687;37.520;15.068;2022-09-25T02:26:39;8.13;;;4.47;;
71838;SDS011;59687;37.520;15.068;2022-09-25T02:29:07;8.20;;;5.80;;
71838;SDS011;59687;37.520;15.068;2022-09-25T02:31:35;8.80;;;6.30;;
71838;SDS011;59687;37.520;15.068;2022-09-25T02:34:06;8.32;;;5.28;;
71838;SDS011;59687;37.520;15.068;2022-09-25T02:36:36;6.53;;;4.20;;
71838;SDS011;59687;37.520;15.068;2022-09-25T02:39:03;6.15;;;3.63;;
71838;SDS011;59687;37.520;15.068;2022-09-25T02:41:36;5.00;;;3.15;;
71838;SDS011;59687;37.520;15.068;2022-09-25T02:57:20;6.07;;;3.63;;
71838;SDS011;59687;37.520;15.068;2022-09-25T02:59:58;6.47;;;4.07;;
71838;SDS011;59687;37.520;15.068;2022-09-25T03:02:28;7.50;;;4.80;;
71838;SDS011;59687;37.520;15.068;2022-09-25T03:04:58;6.95;;;4.03;;
71838;SDS011;59687;37.520;15.068;2022-09-25T03:07:29;8.63;;;3.60;;
71838;SDS011;59687;37.520;15.068;2022-09-25T03:10:17;7.15;;;5.00;;
71838;SDS011;59687;37.520;15.068;2022-09-25T03:12:45;8.55;;;5.13;;
71838;SDS011;59687;37.520;15.068;2022-09-25T03:15:12;7.37;;;4.17;;
71838;SDS011;59687;37.520;15.068;2022-09-25T03:17:39;6.93;;;4.38;;
71838;SDS011;59687;37.520;15.068;2022-09-25T03:20:06;5.25;;;3.38;;
71838;SDS011;59687;37.520;15.068;2022-09-25T03:22:35;6.63;;;4.53;;
71838;SDS011;59687;37.520;15.068;2022-09-25T03:25:04;7.53;;;5.10;;
71838;SDS011;59687;37.520;15.068;2022-09-25T03:27:31;6.57;;;4.27;;
71838;SDS011;59687;37.520;15.068;2022-09-25T03:29:58;5.80;;;4.38;;
71838;SDS011;59687;37.520;15.068;2022-09-25T03:32:25;5.53;;;3.72;;
71838;SDS011;59687;37.520;15.068;2022-09-25T03:34:53;7.50;;;3.83;;
71838;SDS011;59687;37.520;15.068;2022-09-25T03:37:22;5.50;;;3.53;;
71838;SDS011;59687;37.520;15.068;2022-09-25T03:39:50;7.57;;;3.93;;
71838;SDS011;59687;37.520;15.068;2022-09-25T03:42:17;6.07;;;4.60;;
71838;SDS011;59687;37.520;15.068;2022-09-25T03:44:45;5.45;;;3.58;;
71838;SDS011;59687;37.520;15.068;2022-09-25T03:47:12;7.13;;;3.70;;
71838;SDS011;59687;37.520;15.068;2022-09-25T03:49:40;6.13;;;3.67;;
71838;SDS011;59687;37.520;15.068;2022-09-25T03:52:07;7.70;;;3.70;;
71838;SDS011;59687;37.520;15.068;2022-09-25T03:54:38;6.32;;;3.05;;
71838;SDS011;59687;37.520;15.068;2022-09-25T03:57:05;5.78;;;3.28;;
71838;SDS011;59687;37.520;15.068;2022-09-25T03:59:32;7.00;;;3.50;;
71838;SDS011;59687;37.520;15.068;2022-09-25T04:01:59;7.00;;;3.60;;
71838;SDS011;59687;37.520;15.068;2022-09-25T04:04:28;8.07;;;3.27;;
71838;SDS011;59687;37.520;15.068;2022-09-25T04:06:56;6.53;;;3.55;;
71838;SDS011;59687;37.520;15.068;2022-09-25T04:09:23;6.40;;;3.53;;
71838;SDS011;59687;37.520;15.068;2022-09-25T04:11:51;8.27;;;3.50;;
71838;SDS011;59687;37.520;15.068;2022-09-25T04:14:19;8.48;;;3.50;;
71838;SDS011;59687;37.520;15.068;2022-09-25T04:16:46;5.53;;;3.33;;
71838;SDS011;59687;37.520;15.068;2022-09-25T04:19:13;5.50;;;3.22;;
71838;SDS011;59687;37.520;15.068;2022-09-25T04:21:43;6.38;;;4.03;;
71838;SDS011;59687;37.520;15.068;2022-09-25T04:24:10;7.00;;;3.25;;
71838;SDS011;59687;37.520;15.068;2022-09-25T04:26:56;8.95;;;3.10;;
71838;SDS011;59687;37.520;15.068;2022-09-25T04:29:24;6.60;;;3.50;;
71838;SDS011;59687;37.520;15.068;2022-09-25T04:31:51;7.00;;;3.80;;
71838;SDS011;59687;37.520;15.068;2022-09-25T04:34:37;5.72;;;3.28;;
71838;SDS011;59687;37.520;15.068;2022-09-25T04:37:04;6.38;;;3.53;;
71838;SDS011;59687;37.520;15.068;2022-09-25T04:39:30;6.00;;;3.25;;
71838;SDS011;59687;37.520;15.068;2022-09-25T04:41:57;5.60;;;3.23;;
71838;SDS011;59687;37.520;15.068;2022-09-25T04:44:24;5.95;;;3.70;;
71838;SDS011;59687;37.520;15.068;2022-09-25T04:46:52;6.45;;;3.67;;
71838;SDS011;59687;37.520;15.068;2022-09-25T04:49:19;5.93;;;3.90;;
71838;SDS011;59687;37.520;15.068;2022-09-25T04:51:46;8.05;;;5.40;;
71838;SDS011;59687;37.520;15.068;2022-09-25T04:54:13;7.03;;;5.50;;
71838;SDS011;59687;37.520;15.068;2022-09-25T04:56:42;6.40;;;4.75;;
71838;SDS011;59687;37.520;15.068;2022-09-25T04:59:09;8.65;;;5.05;;
71838;SDS011;59687;37.520;15.068;2022-09-25T05:01:41;6.68;;;4.93;;
71838;SDS011;59687;37.520;15.068;2022-09-25T05:04:09;9.07;;;5.75;;
71838;SDS011;59687;37.520;15.068;2022-09-25T05:06:36;7.70;;;5.30;;
71838;SDS011;59687;37.520;15.068;2022-09-25T05:09:03;10.70;;;7.00;;
71838;SDS011;59687;37.520;15.068;2022-09-25T05:11:30;10.73;;;6.80;;
71838;SDS011;59687;37.520;15.068;2022-09-25T05:13:58;8.15;;;5.47;;
71838;SDS011;59687;37.520;15.068;2022-09-25T05:16:27;7.07;;;3.80;;
71838;SDS011;59687;37.520;15.068;2022-09-25T05:18:56;6.83;;;3.77;;
71838;SDS011;59687;37.520;15.068;2022-09-25T05:21:24;6.22;;;4.03;;
71838;SDS011;59687;37.520;15.068;2022-09-25T05:23:51;5.10;;;2.90;;
71838;SDS011;59687;37.520;15.068;2022-09-25T05:26:18;6.03;;;3.17;;
71838;SDS011;59687;37.520;15.068;2022-09-25T05:28:47;5.70;;;2.95;;
71838;SDS011;59687;37.520;15.068;2022-09-25T05:31:16;5.60;;;2.70;;
71838;SDS011;59687;37.520;15.068;2022-09-25T05:33:44;4.80;;;2.70;;
71838;SDS011;59687;37.520;15.068;2022-09-25T05:36:11;6.03;;;2.80;;
71838;SDS011;59687;37.520;15.068;2022-09-25T05:38:38;6.20;;;2.60;;
71838;SDS011;59687;37.520;15.068;2022-09-25T05:41:07;6.30;;;2.30;;
71838;SDS011;59687;37.520;15.068;2022-09-25T05:43:38;5.50;;;2.80;;
71838;SDS011;59687;37.520;15.068;2022-09-25T05:46:09;5.18;;;2.80;;
71838;SDS011;59687;37.520;15.068;2022-09-25T05:48:37;5.25;;;2.50;;
71838;SDS011;59687;37.520;15.068;2022-09-25T05:51:05;5.38;;;2.45;;
71838;SDS011;59687;37.520;15.068;2022-09-25T05:53:32;4.60;;;2.40;;
71838;SDS011;59687;37.520;15.068;2022-09-25T05:56:02;5.13;;;2.60;;
71838;SDS011;59687;37.520;15.068;2022-09-25T05:58:30;4.72;;;2.63;;
71838;SDS011;59687;37.520;15.068;2022-09-25T06:01:03;4.60;;;2.80;;
71838;SDS011;59687;37.520;15.068;2022-09-25T06:03:31;5.38;;;2.95;;
71838;SDS011;59687;37.520;15.068;2022-09-25T06:05:59;6.78;;;3.30;;
71838;SDS011;59687;37.520;15.068;2022-09-25T06:08:27;8.43;;;4.93;;
71838;SDS011;59687;37.520;15.068;2022-09-25T06:10:57;8.57;;;5.80;;
71838;SDS011;59687;37.520;15.068;2022-09-25T06:13:26;6.82;;;4.05;;
71838;SDS011;59687;37.520;15.068;2022-09-25T06:15:54;9.00;;;4.18;;
71838;SDS011;59687;37.520;15.068;2022-09-25T06:18:24;8.80;;;3.50;;
71838;SDS011;59687;37.520;15.068;2022-09-25T06:20:58;7.17;;;2.90;;
71838;SDS011;59687;37.520;15.068;2022-09-25T06:23:30;6.63;;;3.58;;
71838;SDS011;59687;37.520;15.068;2022-09-25T06:26:03;8.43;;;4.28;;
71838;SDS011;59687;37.520;15.068;2022-09-25T06:28:31;6.65;;;3.47;;
71838;SDS011;59687;37.520;15.068;2022-09-25T06:31:01;9.68;;;4.60;;
71838;SDS011;59687;37.520;15.068;2022-09-25T06:33:29;5.70;;;3.13;;
71838;SDS011;59687;37.520;15.068;2022-09-25T06:35:58;9.45;;;3.72;;
71838;SDS011;59687;37.520;15.068;2022-09-25T06:38:26;5.90;;;2.85;;
71838;SDS011;59687;37.520;15.068;2022-09-25T06:40:53;5.93;;;2.67;;
71838;SDS011;59687;37.520;15.068;2022-09-25T06:43:25;5.85;;;2.50;;
71838;SDS011;59687;37.520;15.068;2022-09-25T06:45:53;7.07;;;3.30;;
71838;SDS011;59687;37.520;15.068;2022-09-25T06:48:20;5.80;;;2.40;;
71838;SDS011;59687;37.520;15.068;2022-09-25T06:50:52;6.15;;;3.03;;
71838;SDS011;59687;37.520;15.068;2022-09-25T06:53:21;7.63;;;2.78;;
71838;SDS011;59687;37.520;15.068;2022-09-25T06:55:49;4.85;;;2.63;;
71838;SDS011;59687;37.520;15.068;2022-09-25T06:58:18;5.00;;;1.90;;
71838;SDS011;59687;37.520;15.068;2022-09-25T07:00:48;5.15;;;1.90;;
71838;SDS011;59687;37.520;15.068;2022-09-25T07:03:16;4.90;;;1.90;;
71838;SDS011;59687;37.520;15.068;2022-09-25T07:06:06;5.35;;;2.17;;
71838;SDS011;59687;37.520;15.068;2022-09-25T07:08:34;4.50;;;2.10;;
71838;SDS011;59687;37.520;15.068;2022-09-25T07:11:01;4.80;;;2.20;;
71838;SDS011;59687;37.520;15.068;2022-09-25T07:13:29;4.68;;;1.70;;
71838;SDS011;59687;37.520;15.068;2022-09-25T07:15:58;4.47;;;1.90;;
71838;SDS011;59687;37.520;15.068;2022-09-25T07:18:27;3.80;;;1.70;;
71838;SDS011;59687;37.520;15.068;2022-09-25T07:20:59;4.18;;;1.55;;
71838;SDS011;59687;37.520;15.068;2022-09-25T07:23:28;5.07;;;1.50;;
71838;SDS011;59687;37.520;15.068;2022-09-25T07:26:02;4.38;;;2.13;;
71838;SDS011;59687;37.520;15.068;2022-09-25T07:28:31;4.32;;;1.60;;
71838;SDS011;59687;37.520;15.068;2022-09-25T07:30:58;4.20;;;1.88;;
71838;SDS011;59687;37.520;15.068;2022-09-25T07:33:25;4.72;;;2.00;;
71838;SDS011;59687;37.520;15.068;2022-09-25T07:35:52;4.00;;;1.80;;
71838;SDS011;59687;37.520;15.068;2022-09-25T07:38:18;4.65;;;1.70;;
71838;SDS011;59687;37.520;15.068;2022-09-25T07:40:45;4.40;;;1.80;;
71838;SDS011;59687;37.520;15.068;2022-09-25T07:43:13;4.60;;;1.50;;
71838;SDS011;59687;37.520;15.068;2022-09-25T07:45:40;5.70;;;2.10;;
71838;SDS011;59687;37.520;15.068;2022-09-25T07:48:14;4.73;;;1.87;;
71838;SDS011;59687;37.520;15.068;2022-09-25T07:50:41;3.40;;;1.40;;
71838;SDS011;59687;37.520;15.068;2022-09-25T07:53:08;4.30;;;1.70;;
71838;SDS011;59687;37.520;15.068;2022-09-25T07:55:35;5.57;;;2.78;;
71838;SDS011;59687;37.520;15.068;2022-09-25T07:58:02;5.35;;;1.83;;
71838;SDS011;59687;37.520;15.068;2022-09-25T08:00:29;4.90;;;1.70;;
71838;SDS011;59687;37.520;15.068;2022-09-25T08:02:56;4.85;;;1.80;;
71838;SDS011;59687;37.520;15.068;2022-09-25T08:05:25;4.55;;;2.20;;
71838;SDS011;59687;37.520;15.068;2022-09-25T08:07:53;5.05;;;1.80;;
71838;SDS011;59687;37.520;15.068;2022-09-25T08:10:20;4.25;;;1.45;;
71838;SDS011;59687;37.520;15.068;2022-09-25T08:12:48;3.40;;;1.60;;
71838;SDS011;59687;37.520;15.068;2022-09-25T08:15:15;5.60;;;1.80;;
71838;SDS011;59687;37.520;15.068;2022-09-25T08:17:42;4.90;;;2.08;;
71838;SDS011;59687;37.520;15.068;2022-09-25T08:20:09;4.43;;;1.92;;
71838;SDS011;59687;37.520;15.068;2022-09-25T08:22:36;5.75;;;2.10;;
71838;SDS011;59687;37.520;15.068;2022-09-25T08:25:04;4.07;;;1.87;;
71838;SDS011;59687;37.520;15.068;2022-09-25T08:27:33;4.93;;;1.83;;
71838;SDS011;59687;37.520;15.068;2022-09-25T08:30:09;4.25;;;1.77;;
71838;SDS011;59687;37.520;15.068;2022-09-25T08:32:39;5.50;;;1.95;;
71838;SDS011;59687;37.520;15.068;2022-09-25T08:35:06;4.88;;;1.80;;
71838;SDS011;59687;37.520;15.068;2022-09-25T08:37:38;4.67;;;1.70;;
71838;SDS011;59687;37.520;15.068;2022-09-25T08:40:21;5.68;;;1.90;;
71838;SDS011;59687;37.520;15.068;2022-09-25T08:42:52;7.80;;;2.60;;
71838;SDS011;59687;37.520;15.068;2022-09-25T08:45:28;5.35;;;2.60;;
71838;SDS011;59687;37.520;15.068;2022-09-25T08:48:24;6.32;;;2.05;;
71838;SDS011;59687;37.520;15.068;2022-09-25T08:51:13;4.83;;;2.10;;
71838;SDS011;59687;37.520;15.068;2022-09-25T08:53:40;4.70;;;2.00;;
71838;SDS011;59687;37.520;15.068;2022-09-25T08:56:10;4.85;;;1.90;;
71838;SDS011;59687;37.520;15.068;2022-09-25T09:01:50;5.85;;;1.80;;
71838;SDS011;59687;37.520;15.068;2022-09-25T09:04:30;4.90;;;2.00;;
71838;SDS011;59687;37.520;15.068;2022-09-25T09:07:24;4.47;;;1.70;;
71838;SDS011;59687;37.520;15.068;2022-09-25T09:12:42;6.35;;;2.10;;
71838;SDS011;59687;37.520;15.068;2022-09-25T09:15:15;6.38;;;2.00;;
71838;SDS011;59687;37.520;15.068;2022-09-25T09:17:55;4.87;;;1.83;;
71838;SDS011;59687;37.520;15.068;2022-09-25T09:20:35;5.13;;;1.95;;
71838;SDS011;59687;37.520;15.068;2022-09-25T09:23:12;5.85;;;1.70;;
71838;SDS011;59687;37.520;15.068;2022-09-25T09:31:12;7.33;;;2.37;;
71838;SDS011;59687;37.520;15.068;2022-09-25T09:48:03;5.72;;;1.58;;
71838;SDS011;59687;37.520;15.068;2022-09-25T09:50:46;7.10;;;2.17;;
71838;SDS011;59687;37.520;15.068;2022-09-25T09:53:46;6.95;;;2.40;;
71838;SDS011;59687;37.520;15.068;2022-09-25T09:56:18;4.88;;;1.80;;
71838;SDS011;59687;37.520;15.068;2022-09-25T09:58:50;7.00;;;1.97;;
71838;SDS011;59687;37.520;15.068;2022-09-25T10:01:28;4.78;;;1.80;;
71838;SDS011;59687;37.520;15.068;2022-09-25T10:04:17;7.10;;;2.00;;
71838;SDS011;59687;37.520;15.068;2022-09-25T10:06:52;5.57;;;1.90;;
71838;SDS011;59687;37.520;15.068;2022-09-25T10:09:27;6.18;;;1.90;;
71838;SDS011;59687;37.520;15.068;2022-09-25T10:12:03;5.77;;;1.83;;
71838;SDS011;59687;37.520;15.068;2022-09-25T10:14:37;7.97;;;3.03;;
71838;SDS011;59687;37.520;15.068;2022-09-25T10:17:09;5.30;;;2.70;;
71838;SDS011;59687;37.520;15.068;2022-09-25T10:19:48;5.88;;;2.30;;
71838;SDS011;59687;37.520;15.068;2022-09-25T10:22:25;5.57;;;1.90;;
71838;SDS011;59687;37.520;15.068;2022-09-25T10:25:02;5.93;;;2.30;;
71838;SDS011;59687;37.520;15.068;2022-09-25T10:38:15;8.30;;;3.50;;
71838;SDS011;59687;37.520;15.068;2022-09-25T10:40:45;12.00;;;6.82;;
71838;SDS011;59687;37.520;15.068;2022-09-25T10:43:24;8.35;;;4.57;;
71838;SDS011;59687;37.520;15.068;2022-09-25T10:46:05;6.00;;;3.45;;
71838;SDS011;59687;37.520;15.068;2022-09-25T10:48:38;6.10;;;3.20;;
71838;SDS011;59687;37.520;15.068;2022-09-25T10:51:59;7.23;;;3.37;;
71838;SDS011;59687;37.520;15.068;2022-09-25T10:54:27;7.18;;;3.70;;
71838;SDS011;59687;37.520;15.068;2022-09-25T10:56:56;8.18;;;3.38;;
71838;SDS011;59687;37.520;15.068;2022-09-25T10:59:23;6.32;;;3.72;;
71838;SDS011;59687;37.520;15.068;2022-09-25T11:01:51;7.32;;;3.80;;
71838;SDS011;59687;37.520;15.068;2022-09-25T11:06:56;7.20;;;4.30;;
71838;SDS011;59687;37.520;15.068;2022-09-25T11:09:26;8.10;;;4.40;;
71838;SDS011;59687;37.520;15.068;2022-09-25T11:12:14;7.03;;;4.30;;
71838;SDS011;59687;37.520;15.068;2022-09-25T11:14:52;8.82;;;4.50;;
71838;SDS011;59687;37.520;15.068;2022-09-25T11:17:39;10.87;;;5.33;;
71838;SDS011;59687;37.520;15.068;2022-09-25T11:20:18;7.55;;;5.00;;
71838;SDS011;59687;37.520;15.068;2022-09-25T11:28:32;10.27;;;4.68;;
71838;SDS011;59687;37.520;15.068;2022-09-25T11:31:23;8.23;;;4.90;;
71838;SDS011;59687;37.520;15.068;2022-09-25T11:39:26;6.47;;;3.55;;
71838;SDS011;59687;37.520;15.068;2022-09-25T11:48:21;6.00;;;2.90;;
71838;SDS011;59687;37.520;15.068;2022-09-25T11:54:10;5.18;;;3.08;;
71838;SDS011;59687;37.520;15.068;2022-09-25T11:57:12;6.28;;;3.80;;
71838;SDS011;59687;37.520;15.068;2022-09-25T12:06:13;5.20;;;3.15;;
71838;SDS011;59687;37.520;15.068;2022-09-25T12:17:40;7.97;;;3.63;;
71838;SDS011;59687;37.520;15.068;2022-09-25T12:23:08;8.02;;;4.05;;
71838;SDS011;59687;37.520;15.068;2022-09-25T12:34:06;6.68;;;3.05;;
71838;SDS011;59687;37.520;15.068;2022-09-25T12:39:45;4.50;;;2.50;;
71838;SDS011;59687;37.520;15.068;2022-09-25T12:42:18;5.73;;;2.80;;
71838;SDS011;59687;37.520;15.068;2022-09-25T12:45:27;5.72;;;2.47;;
71838;SDS011;59687;37.520;15.068;2022-09-25T12:57:18;5.00;;;2.40;;
71838;SDS011;59687;37.520;15.068;2022-09-25T13:02:42;5.20;;;2.63;;
71838;SDS011;59687;37.520;15.068;2022-09-25T13:11:07;5.07;;;2.50;;
71838;SDS011;59687;37.520;15.068;2022-09-25T13:13:41;6.57;;;3.05;;
71838;SDS011;59687;37.520;15.068;2022-09-25T13:16:13;6.35;;;2.80;;
71838;SDS011;59687;37.520;15.068;2022-09-25T13:18:48;6.03;;;3.13;;
71838;SDS011;59687;37.520;15.068;2022-09-25T13:21:34;8.57;;;2.97;;
71838;SDS011;59687;37.520;15.068;2022-09-25T13:24:04;5.17;;;2.80;;
71838;SDS011;59687;37.520;15.068;2022-09-25T13:26:42;7.53;;;2.83;;
71838;SDS011;59687;37.520;15.068;2022-09-25T13:29:26;7.57;;;2.38;;
71838;SDS011;59687;37.520;15.068;2022-09-25T13:32:02;6.40;;;2.95;;
71838;SDS011;59687;37.520;15.068;2022-09-25T13:34:44;7.03;;;2.70;;
71838;SDS011;59687;37.520;15.068;2022-09-25T13:37:12;8.33;;;3.03;;
71838;SDS011;59687;37.520;15.068;2022-09-25T13:39:43;5.15;;;2.22;;
71838;SDS011;59687;37.520;15.068;2022-09-25T13:42:38;5.70;;;2.08;;
71838;SDS011;59687;37.520;15.068;2022-09-25T13:45:44;6.93;;;2.60;;
71838;SDS011;59687;37.520;15.068;2022-09-25T13:50:39;8.33;;;3.00;;
71838;SDS011;59687;37.520;15.068;2022-09-25T13:53:10;9.57;;;3.30;;
71838;SDS011;59687;37.520;15.068;2022-09-25T13:58:26;10.15;;;3.78;;
71838;SDS011;59687;37.520;15.068;2022-09-25T14:00:58;8.13;;;3.42;;
71838;SDS011;59687;37.520;15.068;2022-09-25T14:05:57;6.80;;;3.10;;
71838;SDS011;59687;37.520;15.068;2022-09-25T14:08:27;6.65;;;3.45;;
71838;SDS011;59687;37.520;15.068;2022-09-25T14:10:57;7.65;;;3.20;;
71838;SDS011;59687;37.520;15.068;2022-09-25T14:13:27;5.93;;;3.42;;
71838;SDS011;59687;37.520;15.068;2022-09-25T14:15:57;5.80;;;3.30;;
71838;SDS011;59687;37.520;15.068;2022-09-25T14:21:08;6.93;;;3.10;;
71838;SDS011;59687;37.520;15.068;2022-09-25T14:23:52;7.53;;;2.67;;
71838;SDS011;59687;37.520;15.068;2022-09-25T14:26:24;6.45;;;2.80;;
71838;SDS011;59687;37.520;15.068;2022-09-25T14:28:55;6.13;;;2.43;;
71838;SDS011;59687;37.520;15.068;2022-09-25T14:36:55;7.35;;;2.20;;
71838;SDS011;59687;37.520;15.068;2022-09-25T14:42:31;7.97;;;2.73;;
71838;SDS011;59687;37.520;15.068;2022-09-25T14:45:14;5.78;;;2.53;;
71838;SDS011;59687;37.520;15.068;2022-09-25T14:48:07;6.53;;;1.83;;
71838;SDS011;59687;37.520;15.068;2022-09-25T14:50:49;6.90;;;1.83;;
71838;SDS011;59687;37.520;15.068;2022-09-25T14:53:30;6.97;;;2.13;;
71838;SDS011;59687;37.520;15.068;2022-09-25T14:56:01;4.00;;;1.60;;
71838;SDS011;59687;37.520;15.068;2022-09-25T14:58:44;5.53;;;1.50;;
71838;SDS011;59687;37.520;15.068;2022-09-25T15:01:31;4.00;;;1.27;;
71838;SDS011;59687;37.520;15.068;2022-09-25T15:04:01;4.97;;;1.40;;
71838;SDS011;59687;37.520;15.068;2022-09-25T15:06:35;5.45;;;1.70;;
71838;SDS011;59687;37.520;15.068;2022-09-25T15:09:18;5.53;;;1.73;;
71838;SDS011;59687;37.520;15.068;2022-09-25T15:11:55;4.75;;;1.90;;
71838;SDS011;59687;37.520;15.068;2022-09-25T15:14:22;4.95;;;2.35;;
71838;SDS011;59687;37.520;15.068;2022-09-25T15:16:52;5.60;;;2.65;;
71838;SDS011;59687;37.520;15.068;2022-09-25T15:19:40;6.40;;;2.53;;
71838;SDS011;59687;37.520;15.068;2022-09-25T15:22:15;5.83;;;2.40;;
71838;SDS011;59687;37.520;15.068;2022-09-25T15:24:54;8.00;;;2.72;;
71838;SDS011;59687;37.520;15.068;2022-09-25T15:27:25;5.60;;;2.90;;
71838;SDS011;59687;37.520;15.068;2022-09-25T15:29:55;6.38;;;2.65;;
71838;SDS011;59687;37.520;15.068;2022-09-25T15:32:26;5.90;;;2.75;;
71838;SDS011;59687;37.520;15.068;2022-09-25T15:37:40;6.22;;;2.65;;
71838;SDS011;59687;37.520;15.068;2022-09-25T15:42:48;6.78;;;2.88;;
71838;SDS011;59687;37.520;15.068;2022-09-25T15:48:09;6.80;;;2.37;;
71838;SDS011;59687;37.520;15.068;2022-09-25T15:50:59;4.38;;;1.70;;
71838;SDS011;59687;37.520;15.068;2022-09-25T15:56:15;5.25;;;1.88;;
71838;SDS011;59687;37.520;15.068;2022-09-25T15:59:06;7.25;;;2.38;;
71838;SDS011;59687;37.520;15.068;2022-09-25T16:02:08;10.20;;;3.80;;
71838;SDS011;59687;37.520;15.068;2022-09-25T16:05:06;8.85;;;2.78;;
71838;SDS011;59687;37.520;15.068;2022-09-25T16:07:37;4.18;;;1.92;;
71838;SDS011;59687;37.520;15.068;2022-09-25T16:18:02;6.05;;;3.53;;
71838;SDS011;59687;37.520;15.068;2022-09-25T16:20:47;10.75;;;5.53;;
71838;SDS011;59687;37.520;15.068;2022-09-25T16:23:49;29.35;;;19.08;;
71838;SDS011;59687;37.520;15.068;2022-09-25T16:26:23;8.57;;;6.18;;
71838;SDS011;59687;37.520;15.068;2022-09-25T16:31:39;6.50;;;2.47;;
71838;SDS011;59687;37.520;15.068;2022-09-25T16:36:58;6.13;;;2.50;;
71838;SDS011;59687;37.520;15.068;2022-09-25T16:39:31;4.93;;;2.15;;
71838;SDS011;59687;37.520;15.068;2022-09-25T16:42:28;5.13;;;2.30;;
71838;SDS011;59687;37.520;15.068;2022-09-25T16:45:07;5.45;;;2.65;;
71838;SDS011;59687;37.520;15.068;2022-09-25T16:47:40;5.15;;;3.00;;
71838;SDS011;59687;37.520;15.068;2022-09-25T16:50:14;5.75;;;2.53;;
71838;SDS011;59687;37.520;15.068;2022-09-25T16:52:46;5.00;;;2.60;;
71838;SDS011;59687;37.520;15.068;2022-09-25T16:55:16;5.73;;;2.13;;
71838;SDS011;59687;37.520;15.068;2022-09-25T16:57:48;4.68;;;2.25;;
71838;SDS011;59687;37.520;15.068;2022-09-25T17:00:23;4.20;;;2.20;;
71838;SDS011;59687;37.520;15.068;2022-09-25T17:02:54;5.03;;;2.03;;
71838;SDS011;59687;37.520;15.068;2022-09-25T17:05:25;6.78;;;2.65;;
71838;SDS011;59687;37.520;15.068;2022-09-25T17:08:00;5.77;;;2.60;;
71838;SDS011;59687;37.520;15.068;2022-09-25T17:10:44;4.53;;;2.50;;
71838;SDS011;59687;37.520;15.068;2022-09-25T17:13:15;7.70;;;4.75;;
71838;SDS011;59687;37.520;15.068;2022-09-25T17:15:43;6.80;;;2.45;;
71838;SDS011;59687;37.520;15.068;2022-09-25T17:18:17;6.15;;;2.60;;
71838;SDS011;59687;37.520;15.068;2022-09-25T17:20:53;7.57;;;4.80;;
71838;SDS011;59687;37.520;15.068;2022-09-25T17:23:22;5.55;;;2.80;;
71838;SDS011;59687;37.520;15.068;2022-09-25T17:26:00;4.57;;;2.40;;
71838;SDS011;59687;37.520;15.068;2022-09-25T17:28:30;6.13;;;2.72;;
71838;SDS011;59687;37.520;15.068;2022-09-25T17:30:59;4.75;;;2.70;;
71838;SDS011;59687;37.520;15.068;2022-09-25T17:33:26;4.83;;;2.53;;
71838;SDS011;59687;37.520;15.068;2022-09-25T17:35:59;5.10;;;2.63;;
71838;SDS011;59687;37.520;15.068;2022-09-25T17:38:31;5.65;;;3.75;;
71838;SDS011;59687;37.520;15.068;2022-09-25T17:40:59;6.25;;;4.18;;
71838;SDS011;59687;37.520;15.068;2022-09-25T17:43:31;6.30;;;3.45;;
71838;SDS011;59687;37.520;15.068;2022-09-25T17:46:00;6.20;;;3.30;;
71838;SDS011;59687;37.520;15.068;2022-09-25T17:48:28;6.47;;;3.03;;
71838;SDS011;59687;37.520;15.068;2022-09-25T17:50:58;6.68;;;3.08;;
71838;SDS011;59687;37.520;15.068;2022-09-25T17:53:27;6.07;;;3.05;;
71838;SDS011;59687;37.520;15.068;2022-09-25T17:55:56;7.00;;;3.30;;
71838;SDS011;59687;37.520;15.068;2022-09-25T17:58:26;5.60;;;2.70;;
71838;SDS011;59687;37.520;15.068;2022-09-25T18:00:55;5.38;;;3.03;;
71838;SDS011;59687;37.520;15.068;2022-09-25T18:03:24;6.25;;;3.50;;
71838;SDS011;59687;37.520;15.068;2022-09-25T18:05:56;7.93;;;3.00;;
71838;SDS011;59687;37.520;15.068;2022-09-25T18:08:31;5.70;;;2.83;;
71838;SDS011;59687;37.520;15.068;2022-09-25T18:11:13;5.80;;;2.60;;